createdAt,value
2022-12-24T00:02:09.086Z,10.54
2022-12-24T00:05:00.594Z,10.53
2022-12-24T00:07:46.169Z,10.43
2022-12-24T00:10:31.224Z,10.34
2022-12-24T00:13:16.416Z,10.31
2022-12-24T00:16:01.727Z,10.21
2022-12-24T00:18:47.275Z,10.20
2022-12-24T00:21:32.682Z,10.25
2022-12-24T00:24:17.792Z,10.15
2022-12-24T00:27:03.566Z,10.22
2022-12-24T00:29:48.383Z,10.30
2022-12-24T00:32:33.479Z,10.37
2022-12-24T00:35:18.536Z,10.45
2022-12-24T00:38:04.372Z,10.47
2022-12-24T00:40:49.637Z,10.43
2022-12-24T00:43:34.801Z,10.45
2022-12-24T00:46:19.986Z,10.38
2022-12-24T00:49:06.417Z,10.38
2022-12-24T00:51:51.357Z,10.50
2022-12-24T00:54:36.594Z,10.55
2022-12-24T00:57:21.302Z,10.46
2022-12-24T01:00:07.025Z,10.51
2022-12-24T01:02:52.296Z,10.48
2022-12-24T01:05:37.362Z,10.43
2022-12-24T01:08:22.313Z,10.46
2022-12-24T01:11:09.454Z,10.47
2022-12-24T01:13:55.857Z,10.51
2022-12-24T01:16:40.869Z,10.60
2022-12-24T01:19:26.104Z,10.58
2022-12-24T01:22:11.273Z,10.59
2022-12-24T01:24:56.161Z,10.55
2022-12-24T01:27:41.037Z,10.56
2022-12-24T01:30:26.182Z,10.57
2022-12-24T01:33:11.087Z,10.55
2022-12-24T01:35:55.985Z,10.69
2022-12-24T01:38:41.432Z,10.50
2022-12-24T01:41:45.351Z,10.56
2022-12-24T01:44:37.272Z,10.52
2022-12-24T01:47:27.435Z,10.56
2022-12-24T01:50:17.650Z,10.39
2022-12-24T01:53:05.677Z,10.39
2022-12-24T01:55:51.687Z,10.35
2022-12-24T01:58:37.742Z,10.25
2022-12-24T02:01:23.239Z,10.20
2022-12-24T02:04:26.051Z,10.26
2022-12-24T02:07:10.867Z,10.18
2022-12-24T02:10:01.341Z,10.16
2022-12-24T02:12:47.191Z,10.16
2022-12-24T02:16:05.206Z,10.08
2022-12-24T02:19:10.147Z,10.05
2022-12-24T02:21:59.265Z,10.10
2022-12-24T02:25:09.314Z,10.00
2022-12-24T02:27:59.565Z,10.04
2022-12-24T02:31:10.382Z,9.96
2022-12-24T02:34:04.844Z,9.99
2022-12-24T02:37:27.917Z,9.99
2022-12-24T02:40:27.983Z,9.98
2022-12-24T02:43:19.043Z,9.94
2022-12-24T02:46:11.088Z,9.99
2022-12-24T02:48:56.537Z,10.05
2022-12-24T02:51:41.753Z,10.00
2022-12-24T02:54:27.087Z,10.00
2022-12-24T02:57:28.319Z,10.02
2022-12-24T03:00:17.919Z,10.08
2022-12-24T03:03:28.308Z,10.18
2022-12-24T03:06:21.727Z,10.13
2022-12-24T03:09:19.570Z,10.17
2022-12-24T03:12:10.657Z,10.21
2022-12-24T03:14:55.841Z,10.18
2022-12-24T03:17:43.655Z,10.16
2022-12-24T03:20:35.312Z,10.07
2022-12-24T03:23:20.589Z,9.91
2022-12-24T03:26:08.970Z,9.77
2022-12-24T03:28:54.088Z,9.68
2022-12-24T03:31:41.809Z,9.62
2022-12-24T03:34:27.383Z,9.58
2022-12-24T03:37:12.227Z,9.56
2022-12-24T03:39:57.235Z,9.55
2022-12-24T03:42:42.435Z,9.44
2022-12-24T03:45:27.631Z,9.43
2022-12-24T03:48:12.764Z,9.35
2022-12-24T03:50:57.643Z,9.31
2022-12-24T03:53:42.777Z,9.25
2022-12-24T03:56:28.223Z,9.19
2022-12-24T03:59:13.144Z,9.13
2022-12-24T04:01:58.639Z,9.13
2022-12-24T04:04:43.870Z,9.13
2022-12-24T04:07:29.067Z,9.09
2022-12-24T04:10:16.595Z,8.99
2022-12-24T04:13:01.527Z,8.92
2022-12-24T04:15:55.940Z,8.92
2022-12-24T04:18:41.224Z,8.90
2022-12-24T04:21:26.457Z,8.80
2022-12-24T04:24:12.325Z,8.78
2022-12-24T04:26:57.152Z,8.82
2022-12-24T04:29:42.354Z,8.81
2022-12-24T04:32:27.206Z,8.76
2022-12-24T04:35:12.405Z,8.72
2022-12-24T04:37:57.538Z,8.68
2022-12-24T04:40:43.897Z,8.71
2022-12-24T04:43:29.682Z,8.68
2022-12-24T04:46:20.745Z,8.70
2022-12-24T04:49:05.628Z,8.63
2022-12-24T04:51:50.596Z,8.58
2022-12-24T04:54:35.667Z,8.56
2022-12-24T04:57:21.008Z,8.56
2022-12-24T05:00:07.218Z,8.49
2022-12-24T05:02:52.724Z,8.45
2022-12-24T05:05:37.864Z,8.44
2022-12-24T05:08:22.837Z,8.35
2022-12-24T05:11:08.004Z,8.35
2022-12-24T05:13:52.906Z,8.33
2022-12-24T05:16:38.562Z,8.31
2022-12-24T05:19:23.383Z,8.27
2022-12-24T05:22:27.215Z,8.29
2022-12-24T05:25:30.886Z,8.33
2022-12-24T05:28:16.247Z,8.41
2022-12-24T05:31:01.412Z,8.61
2022-12-24T05:33:46.637Z,8.79
2022-12-24T05:36:31.439Z,8.90
2022-12-24T05:39:17.941Z,8.90
2022-12-24T05:42:03.227Z,8.90
2022-12-24T05:44:48.334Z,8.93
2022-12-24T05:47:38.127Z,8.90
2022-12-24T05:50:26.661Z,8.91
2022-12-24T05:53:11.486Z,9.11
2022-12-24T05:56:05.793Z,9.03
2022-12-24T05:58:53.323Z,8.88
2022-12-24T06:01:38.531Z,8.96
2022-12-24T06:04:28.638Z,8.98
2022-12-24T06:07:14.369Z,8.93
2022-12-24T06:09:59.177Z,8.89
2022-12-24T06:12:44.147Z,8.75
2022-12-24T06:15:30.243Z,8.74
2022-12-24T06:18:15.370Z,8.74
2022-12-24T06:21:00.744Z,8.75
2022-12-24T06:23:46.715Z,8.75
2022-12-24T06:26:31.510Z,8.81
2022-12-24T06:29:16.727Z,8.91
2022-12-24T06:32:01.849Z,9.02
2022-12-24T06:34:46.742Z,9.07
2022-12-24T06:37:31.891Z,9.10
2022-12-24T06:40:17.095Z,9.09
2022-12-24T06:43:02.195Z,9.09
2022-12-24T06:45:53.378Z,9.16
2022-12-24T06:48:38.234Z,9.32
2022-12-24T06:51:23.295Z,9.35
2022-12-24T06:54:08.396Z,9.44
2022-12-24T06:56:53.203Z,9.50
2022-12-24T06:59:38.287Z,9.47
2022-12-24T07:02:24.114Z,9.48
2022-12-24T07:05:12.320Z,9.43
2022-12-24T07:07:57.212Z,9.43
2022-12-24T07:10:42.467Z,9.51
2022-12-24T07:13:27.476Z,9.46
2022-12-24T07:16:12.615Z,9.41
2022-12-24T07:18:57.830Z,9.41
2022-12-24T07:21:42.616Z,9.46
2022-12-24T07:24:27.777Z,9.45
2022-12-24T07:27:12.917Z,9.42
2022-12-24T07:29:58.108Z,9.44
2022-12-24T07:32:42.981Z,9.44
2022-12-24T07:35:28.097Z,9.49
2022-12-24T07:38:13.333Z,9.45
2022-12-24T07:40:58.571Z,9.37
2022-12-24T07:43:43.514Z,9.29
2022-12-24T07:46:28.767Z,9.35
2022-12-24T07:49:14.182Z,9.33
2022-12-24T07:51:59.405Z,9.39
2022-12-24T07:54:44.451Z,9.41
2022-12-24T07:57:29.635Z,9.48
2022-12-24T08:00:14.757Z,9.46
2022-12-24T08:03:00.104Z,9.53
2022-12-24T08:05:45.956Z,9.58
2022-12-24T08:08:31.109Z,9.67
2022-12-24T08:11:16.586Z,9.71
2022-12-24T08:14:01.637Z,9.67
2022-12-24T08:16:46.653Z,9.71
2022-12-24T08:19:31.551Z,9.76
2022-12-24T08:22:16.576Z,9.82
2022-12-24T08:25:01.422Z,9.99
2022-12-24T08:27:46.531Z,10.04
2022-12-24T08:30:31.387Z,10.09
2022-12-24T08:33:17.250Z,10.23
2022-12-24T08:36:03.245Z,10.36
2022-12-24T08:38:48.290Z,10.41
2022-12-24T08:41:33.376Z,10.35
2022-12-24T08:44:18.581Z,10.53
2022-12-24T08:47:03.735Z,10.40
2022-12-24T08:49:48.515Z,10.54
2022-12-24T08:52:33.912Z,10.30
2022-12-24T08:55:18.857Z,10.14
2022-12-24T08:58:03.943Z,10.13
2022-12-24T09:00:48.896Z,10.20
2022-12-24T09:03:33.895Z,10.08
2022-12-24T09:06:19.146Z,10.10
2022-12-24T09:09:05.175Z,10.09
2022-12-24T09:11:50.589Z,10.14
2022-12-24T09:14:35.884Z,10.22
2022-12-24T09:17:21.433Z,10.26
2022-12-24T09:20:07.182Z,10.40
2022-12-24T09:22:52.256Z,10.45
2022-12-24T09:25:42.084Z,10.40
2022-12-24T09:28:26.873Z,10.36
2022-12-24T09:31:13.177Z,10.43
2022-12-24T09:33:58.690Z,10.46
2022-12-24T09:36:43.634Z,10.46
2022-12-24T09:39:29.140Z,10.50
2022-12-24T09:42:20.374Z,10.54
2022-12-24T09:45:23.819Z,10.53
2022-12-24T09:48:16.006Z,10.56
2022-12-24T09:51:21.311Z,10.65
2022-12-24T09:54:30.663Z,10.70
2022-12-24T09:57:32.020Z,10.69
2022-12-24T10:00:27.561Z,10.80
2022-12-24T10:03:16.571Z,10.79
2022-12-24T10:06:16.049Z,10.81
2022-12-24T10:09:29.112Z,10.73
2022-12-24T10:12:22.723Z,10.65
2022-12-24T10:15:18.545Z,10.62
2022-12-24T10:18:26.368Z,10.81
2022-12-24T10:21:15.574Z,10.83
2022-12-24T10:24:06.859Z,10.82
2022-12-24T10:27:06.696Z,10.84
2022-12-24T10:30:01.500Z,10.87
2022-12-24T10:32:51.385Z,10.83
2022-12-24T10:35:44.993Z,10.80
2022-12-24T10:38:31.539Z,10.91
2022-12-24T10:41:17.181Z,10.92
2022-12-24T10:44:04.364Z,10.99
2022-12-24T10:46:49.527Z,10.95
2022-12-24T10:49:46.562Z,11.00
2022-12-24T10:52:37.608Z,11.05
2022-12-24T10:55:24.437Z,10.96
2022-12-24T10:58:16.938Z,10.95
2022-12-24T11:01:02.598Z,11.01
2022-12-24T11:04:00.956Z,11.00
2022-12-24T11:06:56.117Z,10.97
2022-12-24T11:09:43.136Z,11.02
2022-12-24T11:12:34.733Z,11.04
2022-12-24T11:15:23.674Z,11.33
2022-12-24T11:18:14.854Z,11.71
2022-12-24T11:21:00.969Z,11.47
2022-12-24T11:23:55.507Z,11.29
2022-12-24T11:26:43.094Z,11.32
2022-12-24T11:29:28.815Z,11.15
2022-12-24T11:32:21.018Z,11.20
2022-12-24T11:35:08.118Z,11.06
2022-12-24T11:38:11.726Z,11.01
2022-12-24T11:41:00.744Z,11.00
2022-12-24T11:43:51.848Z,10.97
2022-12-24T11:46:40.102Z,10.98
2022-12-24T11:49:31.823Z,10.95
2022-12-24T11:52:22.085Z,10.97
2022-12-24T11:55:18.853Z,10.92
2022-12-24T11:58:25.300Z,11.13
2022-12-24T12:01:24.630Z,11.36
2022-12-24T12:04:18.393Z,11.28
2022-12-24T12:07:14.703Z,11.25
2022-12-24T12:10:17.790Z,11.34
2022-12-24T12:13:12.936Z,11.34
2022-12-24T12:16:18.516Z,11.32
2022-12-24T12:19:13.092Z,11.40
2022-12-24T12:22:04.820Z,11.41
2022-12-24T12:24:53.588Z,11.43
2022-12-24T12:27:44.037Z,11.54
2022-12-24T12:30:30.519Z,11.56
2022-12-24T12:33:59.955Z,11.57
2022-12-24T12:36:49.203Z,11.65
2022-12-24T12:39:36.475Z,11.68
2022-12-24T12:42:34.700Z,11.83
2022-12-24T12:45:32.453Z,11.79
2022-12-24T12:48:41.968Z,11.85
2022-12-24T12:51:47.789Z,11.87
2022-12-24T12:54:51.414Z,11.92
2022-12-24T12:57:39.090Z,11.85
2022-12-24T13:00:24.449Z,11.89
2022-12-24T13:03:32.051Z,11.68
2022-12-24T13:07:00.315Z,11.63
2022-12-24T13:10:02.363Z,11.68
2022-12-24T13:13:20.756Z,11.65
2022-12-24T13:16:45.626Z,11.61
2022-12-24T13:20:01.442Z,11.65
2022-12-24T13:22:53.795Z,11.62
2022-12-24T13:25:44.160Z,11.51
2022-12-24T13:28:34.158Z,11.47
2022-12-24T13:31:24.424Z,11.46
2022-12-24T13:34:33.538Z,11.49
2022-12-24T13:37:30.936Z,11.42
2022-12-24T13:40:25.160Z,11.35
2022-12-24T13:43:12.267Z,11.24
2022-12-24T13:45:58.829Z,11.14
2022-12-24T13:48:43.545Z,11.12
2022-12-24T13:51:29.134Z,11.08
2022-12-24T13:54:15.001Z,11.09
2022-12-24T13:57:00.879Z,11.06
2022-12-24T13:59:46.590Z,11.00
2022-12-24T14:02:37.608Z,10.97
2022-12-24T14:05:39.229Z,10.90
2022-12-24T14:08:24.195Z,11.05
2022-12-24T14:11:17.801Z,11.07
2022-12-24T14:14:09.728Z,11.13
2022-12-24T14:16:59.055Z,11.03
2022-12-24T14:20:01.772Z,10.77
2022-12-24T14:22:47.313Z,10.96
2022-12-24T14:25:32.723Z,11.08
2022-12-24T14:28:24.153Z,10.99
2022-12-24T14:31:15.545Z,10.87
2022-12-24T14:34:13.515Z,10.71
2022-12-24T14:37:02.835Z,10.67
2022-12-24T14:39:49.078Z,10.48
2022-12-24T14:42:42.843Z,10.50
2022-12-24T14:45:37.470Z,10.51
2022-12-24T14:48:34.217Z,10.52
2022-12-24T14:51:27.906Z,10.47
2022-12-24T14:54:35.504Z,10.43
2022-12-24T14:57:23.609Z,10.42
2022-12-24T15:00:20.326Z,10.32
2022-12-24T15:03:14.390Z,10.43
2022-12-24T15:06:05.147Z,10.43
2022-12-24T15:08:50.467Z,10.46
2022-12-24T15:11:35.926Z,10.44
2022-12-24T15:14:23.824Z,10.39
2022-12-24T15:17:12.170Z,10.20
2022-12-24T15:19:59.133Z,10.21
2022-12-24T15:22:47.057Z,10.20
2022-12-24T15:25:32.988Z,10.03
2022-12-24T15:28:19.946Z,10.07
2022-12-24T15:31:11.241Z,10.12
2022-12-24T15:33:59.069Z,10.02
2022-12-24T15:36:43.868Z,9.83
2022-12-24T15:39:29.754Z,9.70
2022-12-24T15:42:19.922Z,9.44
2022-12-24T15:45:12.731Z,9.16
2022-12-24T15:48:01.137Z,9.06
2022-12-24T15:50:48.902Z,8.93
2022-12-24T15:53:43.609Z,8.92
2022-12-24T15:56:31.400Z,8.99
2022-12-24T15:59:19.159Z,9.04
2022-12-24T16:02:38.706Z,8.83
2022-12-24T16:05:33.583Z,8.44
2022-12-24T16:08:23.111Z,8.30
2022-12-24T16:11:28.367Z,8.19
2022-12-24T16:14:20.091Z,8.13
2022-12-24T16:17:17.675Z,8.05
2022-12-24T16:20:07.288Z,7.89
2022-12-24T16:22:52.392Z,7.93
2022-12-24T16:25:37.519Z,7.94
2022-12-24T16:28:23.297Z,7.91
2022-12-24T16:31:17.743Z,7.86
2022-12-24T16:34:03.355Z,7.60
2022-12-24T16:36:48.201Z,7.56
2022-12-24T16:39:34.810Z,7.58
2022-12-24T16:42:38.694Z,7.59
2022-12-24T16:45:23.764Z,7.59
2022-12-24T16:48:09.120Z,7.44
2022-12-24T16:50:54.058Z,7.28
2022-12-24T16:53:39.964Z,7.27
2022-12-24T16:56:24.932Z,7.21
2022-12-24T16:59:19.647Z,7.18
2022-12-24T17:02:10.872Z,7.16
2022-12-24T17:04:58.949Z,7.08
2022-12-24T17:07:44.652Z,7.14
2022-12-24T17:10:29.537Z,7.11
2022-12-24T17:13:14.371Z,7.05
2022-12-24T17:16:01.891Z,7.02
2022-12-24T17:18:48.112Z,7.01
2022-12-24T17:21:33.360Z,7.00
2022-12-24T17:24:18.492Z,7.00
2022-12-24T17:27:03.691Z,6.96
2022-12-24T17:29:48.498Z,6.88
2022-12-24T17:32:33.869Z,6.85
2022-12-24T17:35:19.044Z,6.74
2022-12-24T17:38:04.254Z,6.75
2022-12-24T17:40:49.653Z,6.73
2022-12-24T17:43:35.356Z,6.69
2022-12-24T17:46:22.997Z,6.68
2022-12-24T17:49:09.046Z,6.62
2022-12-24T17:51:54.241Z,6.49
2022-12-24T17:54:39.326Z,6.43
2022-12-24T17:57:24.282Z,6.44
2022-12-24T18:00:10.176Z,6.36
2022-12-24T18:02:55.495Z,6.35
2022-12-24T18:05:40.689Z,6.33
2022-12-24T18:08:25.848Z,6.31
2022-12-24T18:11:20.606Z,6.30
2022-12-24T18:14:05.857Z,6.33
2022-12-24T18:16:50.805Z,6.32
2022-12-24T18:19:36.189Z,6.35
2022-12-24T18:22:21.176Z,6.37
2022-12-24T18:25:07.007Z,6.39
2022-12-24T18:27:51.796Z,6.41
2022-12-24T18:30:36.843Z,6.43
2022-12-24T18:33:22.072Z,6.42
2022-12-24T18:36:07.743Z,6.44
2022-12-24T18:38:52.904Z,6.50
2022-12-24T18:41:38.036Z,6.48
2022-12-24T18:44:25.507Z,6.43
2022-12-24T18:47:11.098Z,6.42
2022-12-24T18:49:55.923Z,6.48
2022-12-24T18:52:41.161Z,6.49
2022-12-24T18:55:26.288Z,6.47
2022-12-24T18:58:11.481Z,6.43
2022-12-24T19:00:56.316Z,6.42
2022-12-24T19:03:41.861Z,6.51
2022-12-24T19:06:26.936Z,6.60
2022-12-24T19:09:11.831Z,6.58
2022-12-24T19:11:57.780Z,6.56
2022-12-24T19:14:42.611Z,6.57
2022-12-24T19:17:27.873Z,6.57
2022-12-24T19:20:12.717Z,6.53
2022-12-24T19:22:57.632Z,6.55
2022-12-24T19:25:42.673Z,6.58
2022-12-24T19:28:29.456Z,6.59
2022-12-24T19:31:17.866Z,6.56
2022-12-24T19:34:02.949Z,6.57
2022-12-24T19:36:48.063Z,6.54
2022-12-24T19:39:33.437Z,6.46
2022-12-24T19:42:18.405Z,6.34
2022-12-24T19:45:03.766Z,6.37
2022-12-24T19:47:50.877Z,6.47
2022-12-24T19:50:35.880Z,6.47
2022-12-24T19:53:20.781Z,6.50
2022-12-24T19:56:06.868Z,6.50
2022-12-24T19:58:51.872Z,6.53
2022-12-24T20:01:36.961Z,6.55
2022-12-24T20:04:22.279Z,6.52
2022-12-24T20:07:07.365Z,6.55
2022-12-24T20:09:52.235Z,6.51
2022-12-24T20:12:37.532Z,6.47
2022-12-24T20:15:22.246Z,6.47
2022-12-24T20:18:07.771Z,6.46
2022-12-24T20:20:52.511Z,6.44
2022-12-24T20:23:38.368Z,6.42
2022-12-24T20:26:26.445Z,6.43
2022-12-24T20:29:11.439Z,6.48
2022-12-24T20:31:56.650Z,6.49
2022-12-24T20:34:41.588Z,6.41
2022-12-24T20:37:26.767Z,6.39
2022-12-24T20:40:11.705Z,6.39
2022-12-24T20:42:57.022Z,6.45
2022-12-24T20:45:49.000Z,6.48
2022-12-24T20:48:34.799Z,6.42
2022-12-24T20:51:24.690Z,6.43
2022-12-24T20:54:10.865Z,6.40
2022-12-24T20:56:58.310Z,6.54
2022-12-24T20:59:43.999Z,6.52
2022-12-24T21:02:29.154Z,6.46
2022-12-24T21:05:14.194Z,6.52
2022-12-24T21:08:00.115Z,6.53
2022-12-24T21:10:46.970Z,6.53
2022-12-24T21:13:31.841Z,6.44
2022-12-24T21:16:17.019Z,6.33
2022-12-24T21:19:02.361Z,6.27
2022-12-24T21:21:47.790Z,6.23
2022-12-24T21:24:32.637Z,6.31
2022-12-24T21:27:17.335Z,6.25
2022-12-24T21:30:03.709Z,6.22
2022-12-24T21:32:49.191Z,6.16
2022-12-24T21:35:33.906Z,6.17
2022-12-24T21:38:19.022Z,6.10
2022-12-24T21:41:08.037Z,6.14
2022-12-24T21:43:52.980Z,6.12
2022-12-24T21:46:38.183Z,6.18
2022-12-24T21:49:41.637Z,6.29
2022-12-24T21:52:26.952Z,6.35
2022-12-24T21:55:12.076Z,6.33
2022-12-24T21:57:56.873Z,6.19
2022-12-24T22:00:42.060Z,6.19
2022-12-24T22:03:27.212Z,6.20
2022-12-24T22:06:34.746Z,6.19
2022-12-24T22:09:38.283Z,5.96
2022-12-24T22:12:23.792Z,6.08
2022-12-24T22:15:08.896Z,6.14
2022-12-24T22:17:54.142Z,6.15
2022-12-24T22:20:39.927Z,6.24
2022-12-24T22:23:24.928Z,6.10
2022-12-24T22:26:12.163Z,6.01
2022-12-24T22:28:56.933Z,6.02
2022-12-24T22:31:42.181Z,6.01
2022-12-24T22:34:27.609Z,6.04
2022-12-24T22:37:12.925Z,5.94
2022-12-24T22:39:57.727Z,5.86
2022-12-24T22:42:42.867Z,5.87
2022-12-24T22:45:28.022Z,5.93
2022-12-24T22:48:13.054Z,5.85
2022-12-24T22:50:58.017Z,5.86
2022-12-24T22:53:43.112Z,5.84
2022-12-24T22:56:27.926Z,6.03
2022-12-24T22:59:13.709Z,6.22
2022-12-24T23:01:59.334Z,6.25
2022-12-24T23:04:44.410Z,6.36
2022-12-24T23:07:29.474Z,6.40
2022-12-24T23:10:14.572Z,6.47
2022-12-24T23:13:18.564Z,6.47
2022-12-24T23:16:05.138Z,6.47
2022-12-24T23:18:50.373Z,6.48
2022-12-24T23:21:36.882Z,6.42
2022-12-24T23:24:22.232Z,6.43
2022-12-24T23:27:07.469Z,6.44
2022-12-24T23:29:52.361Z,6.47
2022-12-24T23:32:37.528Z,6.48
2022-12-24T23:35:22.546Z,6.47
2022-12-24T23:38:08.011Z,6.48
2022-12-24T23:40:57.077Z,6.46
2022-12-24T23:43:41.840Z,6.44
2022-12-24T23:46:27.220Z,6.38
2022-12-24T23:49:15.574Z,6.40
2022-12-24T23:52:00.623Z,6.28
2022-12-24T23:54:45.625Z,6.31
2022-12-24T23:57:30.624Z,6.38
